createdAt,value
2023-04-27T02:06:24.388Z,22.00
2023-04-27T02:08:52.863Z,21.90
2023-04-27T02:11:21.230Z,21.80
2023-04-27T02:13:49.775Z,21.80
2023-04-27T02:16:18.244Z,21.60
2023-04-27T02:18:46.739Z,21.60
2023-04-27T02:21:15.120Z,21.60
2023-04-27T02:23:43.558Z,21.60
2023-04-27T02:26:18.917Z,21.40
2023-04-27T02:28:48.460Z,21.40
2023-04-27T02:31:17.514Z,21.30
2023-04-27T02:33:46.257Z,21.10
2023-04-27T02:36:14.648Z,21.10
2023-04-27T02:38:43.112Z,21.10
2023-04-27T02:41:11.679Z,21.00
2023-04-27T02:43:40.146Z,20.90
2023-04-27T02:46:08.574Z,20.90
2023-04-27T02:48:37.114Z,20.90
2023-04-27T02:51:06.206Z,20.80
2023-04-27T02:53:34.621Z,20.80
2023-04-27T02:56:02.998Z,20.70
2023-04-27T02:58:31.688Z,20.50
2023-04-27T03:01:00.144Z,20.50
2023-04-27T03:03:28.829Z,20.40
2023-04-27T03:05:57.706Z,20.30
2023-04-27T03:08:26.166Z,20.20
2023-04-27T03:10:54.609Z,20.20
2023-04-27T03:13:23.330Z,20.00
2023-04-27T03:15:51.693Z,20.00
2023-04-27T03:18:20.236Z,19.90
2023-04-27T03:20:48.680Z,19.70
2023-04-27T03:23:17.147Z,19.60
2023-04-27T03:25:45.609Z,19.60
2023-04-27T03:28:13.980Z,19.40
2023-04-27T03:30:42.354Z,19.30
2023-04-27T03:33:10.805Z,19.30
2023-04-27T03:35:39.187Z,19.20
2023-04-27T03:38:07.561Z,19.20
2023-04-27T03:40:35.961Z,19.00
2023-04-27T03:43:04.344Z,19.00
2023-04-27T03:45:32.793Z,18.90
2023-04-27T03:48:01.280Z,18.70
2023-04-27T03:50:30.301Z,18.70
2023-04-27T03:52:58.862Z,18.60
2023-04-27T03:55:27.578Z,18.60
2023-04-27T03:57:55.949Z,18.50
2023-04-27T04:00:24.547Z,18.40
2023-04-27T04:02:53.304Z,18.30
2023-04-27T04:05:22.570Z,18.30
2023-04-27T04:07:51.126Z,18.10
2023-04-27T04:10:20.217Z,18.10
2023-04-27T04:12:48.596Z,18.00
2023-04-27T04:15:17.208Z,18.00
2023-04-27T04:17:46.717Z,17.90
2023-04-27T04:20:15.204Z,17.80
2023-04-27T04:22:44.918Z,17.70
2023-04-27T04:25:13.863Z,17.70
2023-04-27T04:27:42.872Z,17.60
2023-04-27T04:30:12.310Z,17.50
2023-04-27T04:32:42.415Z,17.50
2023-04-27T04:35:12.074Z,17.40
2023-04-27T04:37:40.482Z,17.40
2023-04-27T04:40:09.821Z,17.30
2023-04-27T04:42:38.791Z,17.30
2023-04-27T04:45:08.109Z,17.20
2023-04-27T04:47:37.523Z,17.10
2023-04-27T04:50:06.367Z,17.10
2023-04-27T04:52:34.755Z,17.00
2023-04-27T04:55:03.197Z,17.00
2023-04-27T04:57:34.578Z,16.90
2023-04-27T05:00:03.412Z,16.90
2023-04-27T05:02:31.916Z,16.80
2023-04-27T05:05:00.698Z,16.80
2023-04-27T05:07:29.244Z,16.70
2023-04-27T05:09:58.076Z,16.60
2023-04-27T05:12:26.667Z,16.60
2023-04-27T05:14:55.273Z,16.60
2023-04-27T05:17:23.736Z,16.50
2023-04-27T05:19:52.161Z,16.40
2023-04-27T05:22:20.620Z,16.30
2023-04-27T05:24:49.047Z,16.30
2023-04-27T05:27:17.928Z,16.20
2023-04-27T05:29:46.312Z,16.20
2023-04-27T05:32:14.684Z,16.20
2023-04-27T05:34:47.318Z,16.10
2023-04-27T05:37:17.182Z,16.20
2023-04-27T05:39:45.560Z,16.10
2023-04-27T05:42:14.045Z,16.10
2023-04-27T05:44:42.530Z,16.00
2023-04-27T05:47:10.934Z,15.90
2023-04-27T05:49:39.351Z,15.80
2023-04-27T05:52:07.981Z,15.80
2023-04-27T05:54:36.763Z,15.70
2023-04-27T05:57:05.165Z,15.70
2023-04-27T05:59:33.578Z,15.70
2023-04-27T06:02:02.000Z,15.60
2023-04-27T06:04:30.714Z,15.60
2023-04-27T06:06:59.567Z,15.60
2023-04-27T06:09:27.957Z,15.60
2023-04-27T06:11:56.362Z,15.50
2023-04-27T06:14:24.807Z,15.40
2023-04-27T06:16:53.199Z,15.40
2023-04-27T06:19:22.085Z,15.40
2023-04-27T06:21:51.780Z,15.30
2023-04-27T06:24:20.599Z,15.30
2023-04-27T06:26:50.173Z,15.20
2023-04-27T06:29:18.765Z,15.20
2023-04-27T06:31:48.055Z,15.20
2023-04-27T06:34:16.459Z,15.10
2023-04-27T06:36:44.840Z,15.20
2023-04-27T06:39:13.393Z,15.10
2023-04-27T06:41:42.066Z,15.00
2023-04-27T06:44:10.524Z,15.00
2023-04-27T06:46:39.121Z,15.00
2023-04-27T06:49:07.704Z,15.00
2023-04-27T06:51:36.192Z,14.90
2023-04-27T06:54:05.057Z,14.90
2023-04-27T06:56:33.460Z,14.90
2023-04-27T06:59:01.922Z,14.80
2023-04-27T07:01:30.507Z,14.80
2023-04-27T07:03:59.156Z,14.70
2023-04-27T07:06:29.504Z,14.70
2023-04-27T07:08:57.909Z,14.70
2023-04-27T07:11:26.616Z,14.60
2023-04-27T07:13:55.154Z,14.60
2023-04-27T07:16:23.629Z,14.60
2023-04-27T07:18:52.042Z,14.50
2023-04-27T07:21:20.445Z,14.50
2023-04-27T07:23:48.841Z,14.50
2023-04-27T07:26:17.758Z,14.50
2023-04-27T07:28:48.072Z,14.40
2023-04-27T07:31:16.876Z,14.40
2023-04-27T07:33:45.385Z,14.30
2023-04-27T07:36:13.796Z,14.30
2023-04-27T07:38:42.334Z,14.20
2023-04-27T07:41:11.236Z,14.20
2023-04-27T07:43:39.646Z,14.10
2023-04-27T07:46:08.399Z,14.10
2023-04-27T07:48:36.813Z,14.00
2023-04-27T07:51:05.271Z,13.90
2023-04-27T07:53:37.314Z,13.90
2023-04-27T07:56:07.798Z,13.80
2023-04-27T07:58:36.277Z,13.90
2023-04-27T08:01:04.854Z,13.80
2023-04-27T08:03:33.695Z,13.80
2023-04-27T08:06:02.929Z,13.70
2023-04-27T08:08:31.592Z,13.70
2023-04-27T08:10:59.998Z,13.70
2023-04-27T08:13:28.378Z,13.60
2023-04-27T08:15:59.332Z,13.50
2023-04-27T08:18:28.075Z,13.50
2023-04-27T08:20:56.886Z,13.50
2023-04-27T08:23:33.686Z,13.40
2023-04-27T08:26:02.179Z,13.50
2023-04-27T08:28:30.604Z,13.50
2023-04-27T08:30:59.104Z,13.40
2023-04-27T08:33:27.574Z,13.30
2023-04-27T08:35:56.437Z,13.30
2023-04-27T08:38:25.736Z,13.20
2023-04-27T08:40:54.156Z,13.20
2023-04-27T08:43:22.544Z,13.10
2023-04-27T08:45:51.462Z,13.10
2023-04-27T08:48:21.266Z,13.10
2023-04-27T08:50:52.690Z,13.10
2023-04-27T08:53:24.454Z,13.00
2023-04-27T08:55:53.021Z,13.00
2023-04-27T08:58:21.610Z,13.00
2023-04-27T09:00:50.809Z,13.00
2023-04-27T09:03:26.988Z,13.00
2023-04-27T09:06:05.024Z,12.90
2023-04-27T09:08:44.544Z,12.90
2023-04-27T09:11:14.101Z,12.90
2023-04-27T09:13:46.091Z,12.90
2023-04-27T09:16:15.792Z,12.90
2023-04-27T09:18:45.209Z,12.90
2023-04-27T09:21:30.183Z,12.90
2023-04-27T09:23:58.684Z,12.90
2023-04-27T09:26:28.852Z,12.80
2023-04-27T09:28:58.651Z,12.80
2023-04-27T09:31:34.519Z,12.80
2023-04-27T09:34:04.409Z,12.80
2023-04-27T09:36:35.817Z,12.80
2023-04-27T09:39:08.061Z,12.80
2023-04-27T09:41:37.502Z,12.80
2023-04-27T09:44:06.546Z,12.80
2023-04-27T09:46:35.368Z,12.80
2023-04-27T09:49:06.743Z,12.80
2023-04-27T09:51:35.438Z,12.80
2023-04-27T09:54:05.882Z,12.80
2023-04-27T09:56:53.051Z,12.80
2023-04-27T09:59:56.755Z,12.80
2023-04-27T10:02:29.619Z,12.70
2023-04-27T10:05:23.082Z,12.70
2023-04-27T10:07:54.135Z,12.70
2023-04-27T10:10:22.557Z,12.60
2023-04-27T10:13:03.206Z,12.60
2023-04-27T10:15:31.830Z,12.50
2023-04-27T10:18:06.509Z,12.50
2023-04-27T10:20:39.167Z,12.40
2023-04-27T10:23:07.809Z,12.40
2023-04-27T10:25:42.158Z,12.30
2023-04-27T10:28:17.810Z,12.30
2023-04-27T10:30:48.003Z,12.30
2023-04-27T10:33:23.019Z,12.30
2023-04-27T10:35:59.368Z,12.30
2023-04-27T10:38:32.280Z,12.40
2023-04-27T10:41:03.293Z,12.30
2023-04-27T10:43:33.341Z,12.20
2023-04-27T10:46:16.599Z,12.10
2023-04-27T10:48:46.201Z,11.90
2023-04-27T10:51:20.804Z,11.80
2023-04-27T10:53:54.629Z,11.60
2023-04-27T10:56:24.475Z,11.50
2023-04-27T10:58:52.921Z,11.50
2023-04-27T11:01:30.035Z,11.40
2023-04-27T11:04:00.369Z,11.40
2023-04-27T11:06:31.103Z,11.30
2023-04-27T11:08:59.753Z,11.30
2023-04-27T11:11:28.253Z,11.30
2023-04-27T11:13:56.803Z,11.30
2023-04-27T11:16:25.383Z,11.30
2023-04-27T11:18:53.856Z,11.20
2023-04-27T11:21:22.967Z,11.10
2023-04-27T11:23:51.439Z,11.00
2023-04-27T11:26:27.350Z,10.90
2023-04-27T11:29:03.030Z,10.90
2023-04-27T11:31:41.671Z,10.90
2023-04-27T11:34:10.677Z,11.00
2023-04-27T11:36:39.149Z,11.00
2023-04-27T11:39:08.159Z,10.90
2023-04-27T11:41:38.486Z,10.90
2023-04-27T11:44:08.771Z,10.90
2023-04-27T11:46:37.946Z,10.90
2023-04-27T11:49:09.530Z,10.80
2023-04-27T11:51:38.488Z,10.70
2023-04-27T11:54:08.447Z,10.60
2023-04-27T11:56:41.723Z,10.50
2023-04-27T11:59:28.412Z,10.50
2023-04-27T12:01:56.837Z,10.50
2023-04-27T12:04:25.879Z,10.50
2023-04-27T12:06:54.448Z,10.50
2023-04-27T12:09:23.390Z,10.50
2023-04-27T12:11:52.122Z,10.50
2023-04-27T12:14:20.752Z,10.40
2023-04-27T12:16:49.172Z,10.40
2023-04-27T12:19:17.749Z,10.50
2023-04-27T12:21:46.253Z,10.40
2023-04-27T12:24:14.921Z,10.50
2023-04-27T12:26:43.574Z,10.50
2023-04-27T12:29:11.971Z,10.50
2023-04-27T12:31:40.641Z,10.30
2023-04-27T12:34:09.148Z,10.30
2023-04-27T12:36:37.574Z,10.30
2023-04-27T12:39:22.827Z,10.30
2023-04-27T12:41:51.751Z,10.20
2023-04-27T12:44:21.356Z,10.30
2023-04-27T12:46:50.182Z,10.30
2023-04-27T12:49:18.923Z,10.30
2023-04-27T12:51:48.867Z,10.30
2023-04-27T12:54:17.477Z,10.30
2023-04-27T12:56:45.894Z,10.40
2023-04-27T12:59:14.749Z,10.40
2023-04-27T13:01:43.308Z,10.40
2023-04-27T13:04:21.445Z,10.20
2023-04-27T13:06:51.249Z,10.20
2023-04-27T13:09:19.636Z,10.20
2023-04-27T13:11:48.214Z,10.20
2023-04-27T13:14:17.114Z,10.20
2023-04-27T13:16:45.671Z,10.20
2023-04-27T13:19:14.179Z,10.20
2023-04-27T13:21:42.745Z,10.30
2023-04-27T13:24:11.419Z,10.30
2023-04-27T13:26:39.863Z,10.20
2023-04-27T13:29:08.293Z,10.10
2023-04-27T13:31:37.372Z,10.20
2023-04-27T13:34:05.919Z,10.10
2023-04-27T13:36:34.316Z,10.20
2023-04-27T13:39:02.766Z,10.10
2023-04-27T13:41:32.143Z,10.20
2023-04-27T13:44:00.577Z,10.20
2023-04-27T13:46:29.125Z,10.30
2023-04-27T13:48:58.087Z,10.40
2023-04-27T13:51:27.475Z,10.60
2023-04-27T13:53:55.837Z,10.60
2023-04-27T13:56:24.211Z,10.60
2023-04-27T13:58:52.683Z,10.70
2023-04-27T14:01:21.358Z,10.90
2023-04-27T14:03:49.923Z,11.00
2023-04-27T14:06:18.786Z,11.10
2023-04-27T14:08:47.156Z,11.20
2023-04-27T14:11:15.853Z,11.40
2023-04-27T14:13:44.236Z,11.70
2023-04-27T14:16:12.668Z,12.10
2023-04-27T14:18:41.259Z,12.60
2023-04-27T14:21:09.715Z,12.80
2023-04-27T14:23:38.137Z,12.80
2023-04-27T14:26:06.711Z,12.90
2023-04-27T14:28:35.449Z,13.10
2023-04-27T14:31:03.854Z,13.40
2023-04-27T14:33:32.257Z,13.70
2023-04-27T14:36:01.494Z,13.70
2023-04-27T14:38:29.883Z,13.70
2023-04-27T14:40:58.350Z,13.60
2023-04-27T14:43:27.657Z,13.80
2023-04-27T14:46:04.873Z,13.80
2023-04-27T14:48:40.757Z,13.80
2023-04-27T14:51:09.214Z,14.10
2023-04-27T14:53:37.771Z,14.40
2023-04-27T14:56:06.831Z,14.80
2023-04-27T14:58:35.625Z,15.30
2023-04-27T15:01:07.155Z,15.60
2023-04-27T15:03:35.864Z,15.40
2023-04-27T15:06:06.053Z,15.30
2023-04-27T15:08:34.760Z,15.40
2023-04-27T15:11:05.174Z,15.50
2023-04-27T15:13:33.590Z,16.10
2023-04-27T15:16:02.738Z,16.70
2023-04-27T15:18:31.672Z,17.00
2023-04-27T15:21:00.880Z,18.00
2023-04-27T15:23:29.487Z,18.70
2023-04-27T15:25:59.610Z,19.20
2023-04-27T15:28:27.993Z,20.00
2023-04-27T15:30:57.001Z,20.50
2023-04-27T15:33:25.579Z,21.90
2023-04-27T15:35:54.250Z,22.00
2023-04-27T15:38:22.675Z,22.90
2023-04-27T15:40:51.253Z,23.30
2023-04-27T15:43:19.623Z,23.50
2023-04-27T15:45:48.119Z,23.70
2023-04-27T15:48:16.996Z,24.30
2023-04-27T15:50:48.389Z,24.30
2023-04-27T15:53:16.972Z,25.20
2023-04-27T15:55:45.379Z,25.70
2023-04-27T15:58:13.799Z,25.60
2023-04-27T16:00:42.365Z,25.60
2023-04-27T16:03:11.600Z,25.20
2023-04-27T16:05:40.132Z,25.90
2023-04-27T16:08:08.544Z,26.40
2023-04-27T16:10:36.947Z,26.10
2023-04-27T16:13:05.349Z,27.10
2023-04-27T16:15:33.744Z,27.60
2023-04-27T16:18:03.055Z,28.00
2023-04-27T16:20:32.305Z,27.70
2023-04-27T16:23:01.471Z,28.20
2023-04-27T16:25:29.921Z,28.00
2023-04-27T16:28:00.522Z,28.20
2023-04-27T16:30:28.949Z,28.40
2023-04-27T16:32:57.478Z,28.00
2023-04-27T16:35:25.903Z,28.80
2023-04-27T16:37:55.280Z,28.60
2023-04-27T16:40:23.696Z,28.90
2023-04-27T16:42:52.852Z,28.70
2023-04-27T16:45:21.417Z,29.20
2023-04-27T16:47:49.857Z,29.30
2023-04-27T16:50:18.383Z,30.60
2023-04-27T16:52:46.773Z,30.00
2023-04-27T16:55:15.160Z,30.90
2023-04-27T16:57:43.626Z,31.20
2023-04-27T17:00:12.961Z,32.00
2023-04-27T17:02:43.730Z,31.30
2023-04-27T17:05:12.807Z,31.20
2023-04-27T17:07:41.340Z,30.60
2023-04-27T17:10:10.183Z,30.40
2023-04-27T17:12:39.122Z,30.70
2023-04-27T17:15:08.988Z,31.10
2023-04-27T17:17:37.484Z,29.40
2023-04-27T17:20:07.663Z,28.70
2023-04-27T17:22:36.236Z,27.80
2023-04-27T17:25:05.029Z,27.10
2023-04-27T17:27:33.509Z,28.00
2023-04-27T17:30:02.037Z,28.70
2023-04-27T17:32:30.461Z,26.70
2023-04-27T17:34:59.043Z,27.20
2023-04-27T17:37:27.441Z,27.40
2023-04-27T17:39:55.832Z,27.40
2023-04-27T17:42:24.287Z,27.80
2023-04-27T17:44:52.726Z,26.00
2023-04-27T17:47:22.963Z,24.30
2023-04-27T17:49:51.465Z,25.10
2023-04-27T17:52:19.854Z,26.60
2023-04-27T17:54:49.867Z,27.50
2023-04-27T17:57:18.317Z,27.20
2023-04-27T17:59:47.067Z,27.90
2023-04-27T18:02:15.600Z,25.70
2023-04-27T18:04:44.145Z,25.80
2023-04-27T18:07:12.626Z,26.40
2023-04-27T18:09:41.037Z,27.90
2023-04-27T18:12:11.657Z,28.30
2023-04-27T18:14:40.310Z,28.30
2023-04-27T18:17:08.703Z,29.00
2023-04-27T18:19:37.103Z,28.40
2023-04-27T18:22:05.524Z,28.90
2023-04-27T18:24:33.926Z,29.00
2023-04-27T18:27:02.431Z,29.20
2023-04-27T18:29:30.839Z,28.40
2023-04-27T18:32:02.440Z,29.00
2023-04-27T18:34:30.883Z,28.30
2023-04-27T18:36:59.293Z,28.40
2023-04-27T18:39:27.811Z,28.40
2023-04-27T18:41:57.939Z,28.20
2023-04-27T18:44:26.313Z,28.00
2023-04-27T18:46:54.731Z,27.10
2023-04-27T18:49:23.162Z,27.30
2023-04-27T18:51:51.926Z,27.60
2023-04-27T18:54:20.345Z,28.60
2023-04-27T18:56:53.653Z,29.70
2023-04-27T18:59:22.161Z,29.90
2023-04-27T19:01:50.686Z,30.10
2023-04-27T19:04:19.716Z,29.70
2023-04-27T19:06:50.686Z,31.50
2023-04-27T19:09:20.171Z,31.30
2023-04-27T19:11:56.052Z,30.70
2023-04-27T19:14:31.564Z,30.60
2023-04-27T19:16:59.984Z,30.50
2023-04-27T19:19:28.664Z,31.20
2023-04-27T19:21:59.073Z,30.60
2023-04-27T19:24:27.640Z,30.30
2023-04-27T19:26:56.014Z,28.60
2023-04-27T19:29:27.662Z,27.80
2023-04-27T19:31:56.403Z,28.60
2023-04-27T19:34:24.855Z,28.30
2023-04-27T19:36:53.266Z,29.40
2023-04-27T19:39:21.994Z,30.20
2023-04-27T19:41:50.368Z,29.40
2023-04-27T19:44:18.773Z,30.30
2023-04-27T19:46:47.244Z,31.30
2023-04-27T19:49:16.716Z,31.30
2023-04-27T19:51:45.124Z,31.40
2023-04-27T19:54:13.654Z,30.70
2023-04-27T19:56:42.175Z,29.90
2023-04-27T19:59:10.694Z,28.90
2023-04-27T20:01:39.137Z,28.90
2023-04-27T20:04:08.306Z,28.20
2023-04-27T20:06:36.910Z,26.50
2023-04-27T20:09:05.452Z,26.10
2023-04-27T20:11:34.030Z,25.60
2023-04-27T20:14:02.412Z,24.50
2023-04-27T20:16:31.537Z,24.10
2023-04-27T20:18:59.981Z,24.00
2023-04-27T20:21:28.887Z,23.80
2023-04-27T20:23:57.370Z,23.70
2023-04-27T20:26:26.884Z,23.40
2023-04-27T20:28:55.359Z,23.40
2023-04-27T20:31:23.800Z,23.60
2023-04-27T20:33:52.484Z,23.70
2023-04-27T20:36:20.907Z,23.50
2023-04-27T20:38:49.278Z,23.40
2023-04-27T20:41:18.053Z,23.60
2023-04-27T20:43:46.792Z,23.30
2023-04-27T20:46:15.315Z,23.10
2023-04-27T20:48:43.756Z,23.00
2023-04-27T20:51:12.180Z,23.00
2023-04-27T20:53:41.067Z,23.30
2023-04-27T20:56:10.007Z,23.50
2023-04-27T20:58:38.405Z,23.40
2023-04-27T21:01:06.964Z,23.30
2023-04-27T21:03:36.635Z,23.20
2023-04-27T21:06:05.475Z,23.40
2023-04-27T21:08:34.456Z,23.40
2023-04-27T21:11:02.933Z,23.50
2023-04-27T21:13:31.528Z,23.40
2023-04-27T21:15:59.911Z,23.40
2023-04-27T21:18:30.359Z,23.40
2023-04-27T21:20:59.429Z,23.30
2023-04-27T21:23:28.037Z,23.30
2023-04-27T21:25:56.883Z,23.20
2023-04-27T21:28:25.277Z,23.20
2023-04-27T21:30:54.240Z,23.20
2023-04-27T21:33:22.719Z,23.40
2023-04-27T21:35:51.239Z,23.60
2023-04-27T21:38:19.631Z,23.20
2023-04-27T21:40:48.049Z,23.30
2023-04-27T21:43:16.733Z,23.20
2023-04-27T21:45:45.163Z,23.00
2023-04-27T21:48:13.601Z,23.00
2023-04-27T21:50:41.990Z,22.90
2023-04-27T21:53:10.439Z,22.80
2023-04-27T21:55:38.863Z,23.10
2023-04-27T21:58:07.259Z,23.30
2023-04-27T22:00:35.826Z,23.20
2023-04-27T22:03:04.667Z,23.40
2023-04-27T22:05:34.237Z,23.30
2023-04-27T22:08:02.654Z,23.30
2023-04-27T22:10:31.209Z,23.40
2023-04-27T22:13:02.760Z,23.30
2023-04-27T22:15:37.053Z,23.20
2023-04-27T22:18:07.522Z,23.20
2023-04-27T22:20:35.936Z,23.40
2023-04-27T22:23:04.401Z,23.40
2023-04-27T22:25:34.360Z,23.40
2023-04-27T22:28:02.861Z,23.40
2023-04-27T22:30:31.859Z,23.50
2023-04-27T22:33:00.424Z,23.50
2023-04-27T22:35:29.024Z,23.60
2023-04-27T22:37:57.861Z,23.60
2023-04-27T22:40:26.722Z,23.60
2023-04-27T22:42:56.273Z,23.70
2023-04-27T22:45:25.005Z,23.70
2023-04-27T22:47:53.472Z,23.70
2023-04-27T22:50:22.200Z,23.60
2023-04-27T22:52:50.904Z,23.70
2023-04-27T22:55:19.579Z,23.80
2023-04-27T22:57:47.996Z,23.90
2023-04-27T23:00:17.035Z,23.80
2023-04-27T23:02:45.694Z,23.80
2023-04-27T23:05:15.269Z,23.80
2023-04-27T23:07:44.211Z,23.80
2023-04-27T23:10:13.767Z,23.90
2023-04-27T23:12:42.479Z,24.00
2023-04-27T23:15:11.517Z,24.20
2023-04-27T23:17:40.021Z,24.20
2023-04-27T23:20:24.480Z,24.20
2023-04-27T23:22:55.792Z,24.40
2023-04-27T23:25:24.250Z,24.50
2023-04-27T23:27:52.994Z,24.40
2023-04-27T23:30:22.875Z,24.30
2023-04-27T23:32:51.445Z,24.40
2023-04-27T23:35:19.936Z,24.30
2023-04-27T23:37:48.570Z,24.40
2023-04-27T23:40:17.275Z,24.60
2023-04-27T23:42:45.697Z,24.70
2023-04-27T23:45:14.221Z,24.60
2023-04-27T23:47:43.167Z,24.50
2023-04-27T23:50:11.859Z,24.30
2023-04-27T23:52:40.328Z,24.50
2023-04-27T23:55:09.327Z,24.50
2023-04-27T23:57:37.894Z,24.70
